Time;durP1;ratioP1;P1;durP2;ratioP2;P2;SDS_P1;SDS_P2;PMS_P1;PMS_P2;Temp;Humidity;BMP_temperature;BMP_pressure;BME280_temperature;BME280_humidity;BME280_pressure;Samples;Min_cycle;Max_cycle;Signal;HPM_P1;HPM_P2
2022/09/28 00:01:29;;;;;;;4.25;2.90;;;;;;;7.96;100.00;98937.69;4982195;28;20054;-81
2022/09/28 00:03:58;;;;;;;4.35;2.58;;;;;;;7.96;100.00;98921.28;4983317;28;20214;-81
2022/09/28 00:06:27;;;;;;;6.38;2.85;;;;;;;8.02;100.00;98930.97;4983476;28;20061;-79
2022/09/28 00:08:54;;;;;;;4.15;2.83;;;;;;;7.97;100.00;98933.31;4980089;28;20137;-79
2022/09/28 00:11:25;;;;;;;4.95;3.10;;;;;;;7.95;100.00;98932.66;4979120;28;20131;-79
2022/09/28 00:13:55;;;;;;;4.00;2.60;;;;;;;7.91;100.00;98934.03;4979108;28;20050;-79
2022/09/28 00:16:24;;;;;;;5.05;3.10;;;;;;;7.94;100.00;98941.47;4979478;28;20047;-80
2022/09/28 00:18:51;;;;;;;7.43;3.22;;;;;;;7.97;100.00;98933.31;4980983;28;20047;-80
2022/09/28 00:21:20;;;;;;;5.00;3.10;;;;;;;7.91;100.00;98929.63;4980095;28;20134;-79
2022/09/28 00:26:33;;;;;;;3.55;2.97;;;;;;;7.93;100.00;98926.84;4980523;28;20525;-80
2022/09/28 00:29:01;;;;;;;3.72;2.90;;;;;;;7.89;100.00;98921.19;4979370;28;20137;-79
2022/09/28 00:31:31;;;;;;;4.07;3.00;;;;;;;7.84;100.00;98928.72;4980137;28;20119;-79
2022/09/28 00:33:59;;;;;;;5.30;2.97;;;;;;;7.84;100.00;98917.50;4981603;28;20053;-79
2022/09/28 00:36:27;;;;;;;5.80;3.30;;;;;;;7.88;100.00;98926.56;4981286;28;20051;-80
2022/09/28 00:38:55;;;;;;;4.43;3.10;;;;;;;7.93;100.00;98921.63;4982583;28;20479;-80
2022/09/28 00:41:22;;;;;;;5.07;3.30;;;;;;;7.85;100.00;98924.31;4982902;28;20074;-79
2022/09/28 00:43:50;;;;;;;4.63;3.20;;;;;;;7.85;100.00;98921.72;4983584;28;20506;-79
2022/09/28 00:46:21;;;;;;;5.25;2.97;;;;;;;7.88;100.00;98923.97;4983527;28;20475;-80
2022/09/28 00:48:55;;;;;;;6.15;3.38;;;;;;;7.92;100.00;98914.81;4982718;28;20046;-79
2022/09/28 00:51:23;;;;;;;6.85;3.50;;;;;;;7.88;100.00;98909.16;4982998;28;20093;-80
2022/09/28 00:53:50;;;;;;;5.28;3.80;;;;;;;7.88;100.00;98903.94;4984682;28;20054;-80
2022/09/28 00:56:21;;;;;;;6.78;3.85;;;;;;;7.81;100.00;98897.03;4982399;28;20104;-80
2022/09/28 00:58:51;;;;;;;7.25;4.30;;;;;;;7.88;100.00;98909.16;4981062;28;20082;-80
2022/09/28 01:01:18;;;;;;;7.97;5.07;;;;;;;7.82;100.00;98904.66;4981358;28;20444;-79
2022/09/28 01:03:47;;;;;;;5.85;4.50;;;;;;;7.89;100.00;98904.75;4984011;28;20074;-80
2022/09/28 01:06:19;;;;;;;6.63;4.47;;;;;;;7.85;100.00;98903.47;4984726;28;20117;-80
2022/09/28 01:08:49;;;;;;;7.82;5.38;;;;;;;7.80;100.00;98905.81;4980423;28;20047;-79
2022/09/28 01:11:16;;;;;;;6.50;4.78;;;;;;;7.74;100.00;98917.75;4979341;28;20059;-81
2022/09/28 01:13:44;;;;;;;6.15;4.95;;;;;;;7.72;100.00;98901.50;4980657;28;20053;-81
2022/09/28 01:16:19;;;;;;;6.25;5.03;;;;;;;7.70;100.00;98906.09;4980053;28;20133;-80
2022/09/28 01:18:59;;;;;;;7.28;4.80;;;;;;;7.76;100.00;98909.75;4980590;28;20063;-81
2022/09/28 01:21:26;;;;;;;7.00;5.10;;;;;;;7.71;100.00;98907.69;4980032;28;20081;-81
2022/09/28 01:24:13;;;;;;;9.82;5.47;;;;;;;7.69;100.00;98914.06;4979822;28;20085;-81
2022/09/28 01:27:01;;;;;;;8.25;5.30;;;;;;;7.74;100.00;98907.34;4982050;28;20129;-80
2022/09/28 01:29:41;;;;;;;7.35;5.00;;;;;;;7.75;100.00;98908.16;4983990;28;20046;-79
2022/09/28 01:32:16;;;;;;;7.47;5.10;;;;;;;7.75;100.00;98911.56;4982179;28;20082;-79
2022/09/28 01:34:51;;;;;;;9.63;5.00;;;;;;;7.78;100.00;98911.22;4980715;28;20138;-79
2022/09/28 01:37:21;;;;;;;7.70;5.90;;;;;;;7.76;100.00;98904.56;4981667;28;20142;-81
2022/09/28 01:39:51;;;;;;;8.80;5.70;;;;;;;7.75;100.00;98897.72;4982446;28;20106;-80
2022/09/28 01:42:24;;;;;;;11.98;5.57;;;;;;;7.82;100.00;98902.06;4986353;28;20069;-81
2022/09/28 01:44:53;;;;;;;7.22;5.32;;;;;;;7.78;100.00;98903.41;4989853;28;20066;-81
2022/09/28 01:47:23;;;;;;;10.25;5.43;;;;;;;7.74;100.00;98889.13;4994347;28;20046;-79
2022/09/28 01:49:55;;;;;;;7.50;5.78;;;;;;;7.83;100.00;98898.47;4981314;28;20146;-80
2022/09/28 01:52:26;;;;;;;12.30;6.10;;;;;;;7.90;100.00;98901.97;4962518;28;20358;-80
2022/09/28 01:54:57;;;;;;;8.05;5.95;;;;;;;7.88;100.00;98885.72;4962368;28;20156;-82
2022/09/28 01:57:31;;;;;;;9.93;6.28;;;;;;;7.85;100.00;98887.88;4977441;28;20574;-81
2022/09/28 02:00:03;;;;;;;9.73;6.40;;;;;;;7.90;100.00;98888.94;4979469;28;20090;-82
2022/09/28 02:02:35;;;;;;;13.18;6.20;;;;;;;7.83;100.00;98895.03;4979264;28;20046;-80
2022/09/28 02:05:07;;;;;;;12.52;6.55;;;;;;;7.85;100.00;98882.66;4980013;28;20081;-81
2022/09/28 02:07:46;;;;;;;9.43;6.40;;;;;;;7.82;100.00;98891.63;4981123;28;20055;-80
2022/09/28 02:10:19;;;;;;;9.20;6.65;;;;;;;7.84;100.00;98891.44;4979763;28;20042;-80
2022/09/28 02:12:51;;;;;;;10.82;7.28;;;;;;;7.91;100.00;98890.56;4979688;28;20047;-80
2022/09/28 02:15:23;;;;;;;10.70;7.72;;;;;;;7.86;100.00;98889.47;4982596;28;20081;-81
2022/09/28 02:17:50;;;;;;;12.30;7.10;;;;;;;7.90;100.00;98890.72;4981869;28;20126;-79
2022/09/28 02:20:18;;;;;;;12.05;6.95;;;;;;;7.83;100.00;98892.44;4984340;28;20046;-80
2022/09/28 02:22:49;;;;;;;10.90;7.47;;;;;;;7.93;100.00;98890.38;4986527;28;20086;-80
2022/09/28 02:25:24;;;;;;;12.82;7.60;;;;;;;7.86;100.00;98894.69;4987393;28;20090;-80
2022/09/28 02:27:56;;;;;;;14.50;8.05;;;;;;;7.92;100.00;98893.97;4984631;28;20081;-79
2022/09/28 02:30:23;;;;;;;13.02;8.30;;;;;;;7.88;100.00;98893.53;4984650;28;20047;-80
2022/09/28 02:32:54;;;;;;;12.32;8.43;;;;;;;7.93;100.00;98899.00;4992898;28;20054;-79
2022/09/28 02:35:22;;;;;;;11.82;7.72;;;;;;;7.98;100.00;98896.66;4991708;28;20114;-80
2022/09/28 02:37:49;;;;;;;12.98;8.30;;;;;;;7.95;100.00;98901.41;4993066;28;20078;-79
2022/09/28 02:40:20;;;;;;;16.02;8.90;;;;;;;7.96;100.00;98905.63;4989606;28;20058;-78
2022/09/28 02:43:05;;;;;;;12.75;9.02;;;;;;;7.97;100.00;98902.03;4987915;28;20054;-80
2022/09/28 02:45:47;;;;;;;14.60;8.77;;;;;;;7.95;100.00;98897.03;4985611;28;20065;-80
2022/09/28 02:48:26;;;;;;;13.07;9.03;;;;;;;7.99;100.00;98907.88;4995575;28;20081;-80
2022/09/28 02:51:05;;;;;;;13.30;9.43;;;;;;;8.01;100.00;98898.09;4993608;28;20051;-81
2022/09/28 02:53:49;;;;;;;12.93;8.80;;;;;;;7.99;100.00;98903.47;4985262;28;20134;-80
2022/09/28 02:56:27;;;;;;;16.42;10.77;;;;;;;8.00;100.00;98901.69;4984341;28;20131;-81
2022/09/28 02:59:03;;;;;;;19.92;13.23;;;;;;;8.06;100.00;98906.13;4982862;28;20053;-81
2022/09/28 03:01:37;;;;;;;22.25;13.88;;;;;;;8.06;100.00;98900.94;4984203;28;20071;-81
2022/09/28 03:04:12;;;;;;;20.10;12.73;;;;;;;8.03;100.00;98903.13;4985158;28;20100;-81
2022/09/28 03:06:43;;;;;;;19.55;13.43;;;;;;;8.11;100.00;98908.22;4983498;28;20070;-81
2022/09/28 03:09:18;;;;;;;19.38;13.95;;;;;;;8.09;100.00;98905.78;4983223;28;20106;-81
2022/09/28 03:11:48;;;;;;;24.13;15.18;;;;;;;8.12;100.00;98894.19;4983288;28;20225;-81
2022/09/28 03:14:16;;;;;;;22.80;15.82;;;;;;;8.12;100.00;98908.03;4981440;28;20054;-80
2022/09/28 03:16:43;;;;;;;24.95;16.50;;;;;;;8.11;100.00;98903.00;4979949;28;20464;-81
2022/09/28 03:19:11;;;;;;;24.90;17.05;;;;;;;8.13;100.00;98904.44;4979987;28;20047;-81
2022/09/28 03:21:37;;;;;;;21.77;16.63;;;;;;;8.15;100.00;98902.44;4979822;28;20051;-80
2022/09/28 03:24:05;;;;;;;31.10;18.10;;;;;;;8.21;100.00;98904.34;4979535;28;20142;-81
2022/09/28 03:26:31;;;;;;;32.70;19.50;;;;;;;8.20;100.00;98905.31;4978022;28;20054;-80
2022/09/28 03:28:58;;;;;;;28.35;19.35;;;;;;;8.32;100.00;98906.50;4977206;28;20101;-81
2022/09/28 03:31:26;;;;;;;27.58;18.58;;;;;;;8.24;100.00;98903.16;4977776;28;20496;-80
2022/09/28 03:33:53;;;;;;;24.95;18.38;;;;;;;8.31;100.00;98914.47;4976516;28;20134;-81
2022/09/28 03:36:19;;;;;;;26.85;16.85;;;;;;;8.28;100.00;98914.84;4977151;28;20113;-81
2022/09/28 03:38:46;;;;;;;24.33;17.15;;;;;;;8.28;100.00;98920.03;4983749;28;20511;-80
2022/09/28 03:41:13;;;;;;;26.50;16.38;;;;;;;8.28;100.00;98920.84;4981953;28;20055;-79
2022/09/28 03:43:39;;;;;;;24.85;16.40;;;;;;;8.31;100.00;98927.50;4982112;28;20122;-79
2022/09/28 03:46:06;;;;;;;24.00;16.75;;;;;;;8.30;100.00;98912.84;4981919;28;20058;-80
2022/09/28 03:48:35;;;;;;;20.80;15.50;;;;;;;8.26;100.00;98911.59;4982703;28;20054;-80
2022/09/28 03:51:04;;;;;;;21.10;15.38;;;;;;;8.29;100.00;98911.25;4983622;28;20070;-81
2022/09/28 03:53:32;;;;;;;22.15;16.77;;;;;;;8.23;100.00;98897.13;4983798;28;20110;-79
2022/09/28 03:56:03;;;;;;;19.67;14.60;;;;;;;8.28;100.00;98915.66;4985626;28;20070;-80
2022/09/28 03:58:30;;;;;;;19.45;14.73;;;;;;;8.24;100.00;98916.19;4983009;28;20053;-79
2022/09/28 04:01:01;;;;;;;23.92;15.25;;;;;;;8.28;100.00;98913.03;4980957;28;20152;-79
2022/09/28 04:03:28;;;;;;;22.02;15.68;;;;;;;8.23;100.00;98915.38;4981011;28;20051;-79
2022/09/28 04:05:56;;;;;;;22.00;16.55;;;;;;;8.25;100.00;98918.63;4980004;28;20138;-80
2022/09/28 04:08:23;;;;;;;23.45;16.45;;;;;;;8.27;100.00;98908.00;4980674;28;20573;-79
2022/09/28 04:10:50;;;;;;;24.35;17.20;;;;;;;8.24;100.00;98919.59;4981009;28;20452;-79
2022/09/28 04:13:16;;;;;;;21.67;16.00;;;;;;;8.26;100.00;98925.44;4977731;28;20123;-78
2022/09/28 04:15:43;;;;;;;25.05;16.67;;;;;;;8.20;100.00;98918.34;4977806;28;20130;-78
2022/09/28 04:18:10;;;;;;;24.08;17.17;;;;;;;8.11;100.00;98903.00;4978229;28;20137;-79
2022/09/28 04:20:39;;;;;;;26.25;17.63;;;;;;;8.21;100.00;98922.56;4977213;28;20059;-79
2022/09/28 04:23:07;;;;;;;26.77;17.60;;;;;;;8.18;100.00;98925.53;4977191;28;20059;-79
2022/09/28 04:25:34;;;;;;;27.92;17.83;;;;;;;8.23;100.00;98923.19;4979545;28;20134;-78
2022/09/28 04:30:46;;;;;;;25.08;17.67;;;;;;;8.20;100.00;98927.97;4981314;28;20101;-78
2022/09/28 04:33:13;;;;;;;27.52;18.15;;;;;;;8.15;100.00;98931.09;4982624;28;20050;-79
2022/09/28 04:35:39;;;;;;;26.77;17.73;;;;;;;8.19;100.00;98921.94;4981159;28;20494;-79
2022/09/28 04:38:07;;;;;;;28.15;18.15;;;;;;;8.17;100.00;98918.72;4980055;28;20086;-78
2022/09/28 04:40:34;;;;;;;22.45;16.15;;;;;;;8.13;100.00;98916.66;4980691;28;20110;-78
2022/09/28 04:43:01;;;;;;;22.02;15.20;;;;;;;8.11;100.00;98911.63;5021042;23;20484;-81
2022/09/28 04:45:27;;;;;;;24.20;15.23;;;;;;;8.02;100.00;98893.69;5002412;28;20057;-81
2022/09/28 04:47:54;;;;;;;20.58;14.40;;;;;;;8.02;100.00;98904.09;5005001;28;20077;-79
2022/09/28 04:50:21;;;;;;;23.67;14.60;;;;;;;8.03;100.00;98909.13;5003514;28;20082;-81
2022/09/28 04:52:48;;;;;;;18.85;14.32;;;;;;;8.11;100.00;98916.03;4990635;28;20464;-80
2022/09/28 04:55:19;;;;;;;18.27;14.45;;;;;;;7.98;100.00;98901.88;4979909;28;20542;-79
2022/09/28 05:01:17;;;;;;;17.42;13.45;;;;;;;8.06;100.00;98913.97;4949036;28;20055;-81
2022/09/28 05:04:08;;;;;;;15.65;12.40;;;;;;;7.97;100.00;98902.03;4975543;28;20058;-81
2022/09/28 05:07:16;;;;;;;15.38;11.30;;;;;;;8.02;100.00;98915.34;4984756;28;20223;-83
2022/09/28 05:13:10;;;;;;;16.55;11.60;;;;;;;7.88;100.00;98890.91;4984970;28;20423;-82
2022/09/28 05:15:51;;;;;;;18.75;11.55;;;;;;;7.85;100.00;98885.25;4980254;28;20117;-81
2022/09/28 05:18:30;;;;;;;21.42;14.10;;;;;;;7.88;100.00;98897.91;4980737;28;20043;-81
2022/09/28 05:21:28;;;;;;;23.65;13.90;;;;;;;7.99;100.00;98920.91;4980284;28;20431;-83
2022/09/28 05:23:57;;;;;;;18.20;12.52;;;;;;;8.01;100.00;98923.34;4981606;28;20094;-82
2022/09/28 05:26:26;;;;;;;13.82;11.73;;;;;;;7.86;100.00;98899.91;4975744;28;20079;-81
2022/09/28 05:28:54;;;;;;;15.10;11.32;;;;;;;7.79;100.00;98904.19;4961712;28;20081;-81
2022/09/28 05:31:27;;;;;;;15.85;11.15;;;;;;;7.93;100.00;98921.63;4962659;28;20055;-81
2022/09/28 05:34:00;;;;;;;15.75;11.65;;;;;;;7.90;100.00;98916.78;4964792;29;20102;-79
2022/09/28 05:36:26;;;;;;;15.15;11.52;;;;;;;7.97;100.00;98928.91;4962543;28;20080;-80
2022/09/28 05:38:56;;;;;;;16.00;11.77;;;;;;;7.82;100.00;98903.84;4963333;28;20081;-78
2022/09/28 05:41:23;;;;;;;15.95;11.90;;;;;;;7.85;100.00;98904.28;4964871;28;20057;-79
2022/09/28 05:43:51;;;;;;;17.48;11.68;;;;;;;7.93;100.00;98917.22;4962162;28;20055;-80
2022/09/28 05:46:20;;;;;;;15.05;11.13;;;;;;;7.89;100.00;98904.75;4962006;28;20173;-80
2022/09/28 05:48:47;;;;;;;16.42;11.95;;;;;;;7.99;100.00;98913.91;4960794;28;20055;-81
2022/09/28 05:51:14;;;;;;;15.70;11.32;;;;;;;7.90;100.00;98906.34;4959832;28;20067;-80
2022/09/28 05:53:40;;;;;;;15.38;10.82;;;;;;;8.01;100.00;98920.72;4962880;29;20522;-79
2022/09/28 05:56:07;;;;;;;16.88;10.32;;;;;;;7.94;100.00;98916.25;4975450;28;20110;-81
2022/09/28 05:58:34;;;;;;;12.90;9.48;;;;;;;7.99;100.00;98926.13;4958703;28;20090;-80
2022/09/28 06:01:00;;;;;;;13.65;10.13;;;;;;;8.05;100.00;98929.75;4963233;28;20102;-80
2022/09/28 06:03:28;;;;;;;15.50;10.45;;;;;;;8.14;100.00;98937.31;4978934;28;20070;-79
2022/09/28 06:05:55;;;;;;;13.55;9.73;;;;;;;8.08;100.00;98934.63;4978378;28;20115;-79
2022/09/28 06:08:22;;;;;;;14.85;10.07;;;;;;;8.09;100.00;98936.22;4977113;28;20133;-79
2022/09/28 06:10:48;;;;;;;12.57;9.15;;;;;;;8.05;100.00;98948.00;4977006;28;20130;-81
2022/09/28 06:13:15;;;;;;;13.63;9.88;;;;;;;8.04;100.00;98947.19;4961443;29;20134;-83
2022/09/28 06:15:43;;;;;;;13.18;9.25;;;;;;;8.03;100.00;98955.22;4969431;28;20082;-83
2022/09/28 06:18:13;;;;;;;13.10;10.38;;;;;;;8.05;100.00;98951.41;4984403;28;20059;-81
2022/09/28 06:20:41;;;;;;;15.43;9.68;;;;;;;8.02;100.00;98948.41;4985479;28;20047;-83
2022/09/28 06:23:08;;;;;;;16.10;9.93;;;;;;;8.02;100.00;98959.63;4983965;28;20492;-83
2022/09/28 06:25:34;;;;;;;12.98;9.70;;;;;;;8.02;100.00;98954.41;4984575;28;20134;-83
2022/09/28 06:28:03;;;;;;;12.57;9.48;;;;;;;8.07;100.00;98959.06;4967565;28;20138;-83
2022/09/28 06:30:32;;;;;;;11.48;9.65;;;;;;;8.02;100.00;98958.81;4965630;28;20058;-82
2022/09/28 06:33:00;;;;;;;12.10;9.85;;;;;;;8.03;100.00;98958.63;4981807;28;20106;-83
2022/09/28 06:35:29;;;;;;;12.73;9.45;;;;;;;8.13;100.00;98963.53;4980010;28;20305;-82
2022/09/28 06:37:57;;;;;;;13.63;9.18;;;;;;;8.14;100.00;98971.19;4986280;28;20109;-79
2022/09/28 06:40:24;;;;;;;13.25;10.38;;;;;;;8.22;100.00;98973.69;4983231;28;20045;-82
2022/09/28 06:45:33;;;;;;;17.83;11.27;;;;;;;8.25;100.00;98980.34;4974978;28;20058;-81
2022/09/28 06:48:06;;;;;;;17.17;11.32;;;;;;;8.25;100.00;98972.53;4980981;28;20086;-81
2022/09/28 06:50:45;;;;;;;18.15;11.70;;;;;;;8.27;100.00;98970.53;4979914;28;20097;-78
2022/09/28 06:53:16;;;;;;;17.48;10.73;;;;;;;8.17;100.00;98955.19;4964409;28;20057;-79
2022/09/28 06:55:48;;;;;;;18.67;11.95;;;;;;;8.20;100.00;98962.63;4969791;28;20503;-80
2022/09/28 07:01:05;;;;;;;17.08;12.68;;;;;;;8.46;100.00;98982.25;4972638;28;20303;-81
2022/09/28 07:03:34;;;;;;;22.60;14.20;;;;;;;8.29;100.00;98971.97;4963250;28;20086;-82
2022/09/28 07:06:03;;;;;;;22.20;14.82;;;;;;;8.29;100.00;98973.78;4964472;28;20106;-82
2022/09/28 07:08:32;;;;;;;22.83;15.32;;;;;;;8.39;100.00;98978.75;4966193;28;20141;-81
2022/09/28 07:11:05;;;;;;;20.27;14.68;;;;;;;8.48;100.00;98995.91;4967901;28;20058;-82
2022/09/28 07:13:32;;;;;;;16.98;10.65;;;;;;;8.53;100.00;98990.94;4966917;28;20500;-82
2022/09/28 07:16:04;;;;;;;20.77;13.30;;;;;;;8.67;100.00;98997.09;4966455;28;20055;-82
2022/09/28 07:18:30;;;;;;;24.83;13.55;;;;;;;8.49;100.00;98985.28;4967608;28;20055;-83
2022/09/28 07:20:57;;;;;;;19.30;13.02;;;;;;;8.67;100.00;98984.88;4964010;28;20082;-81
2022/09/28 07:23:26;;;;;;;14.98;10.50;;;;;;;8.80;100.00;98998.06;4962528;28;20094;-84
2022/09/28 07:25:54;;;;;;;12.48;8.45;;;;;;;8.88;100.00;98994.53;4963185;28;20058;-82
2022/09/28 07:28:21;;;;;;;12.65;7.38;;;;;;;8.94;100.00;99005.06;4962910;29;20568;-80
2022/09/28 07:30:47;;;;;;;10.30;6.93;;;;;;;8.92;100.00;99007.03;4965060;29;20044;-80
2022/09/28 07:33:16;;;;;;;13.65;7.78;;;;;;;9.00;100.00;99008.69;4962975;28;20367;-79
2022/09/28 07:35:50;;;;;;;11.38;7.22;;;;;;;9.06;100.00;99002.75;4962035;29;20180;-81
2022/09/28 07:38:17;;;;;;;11.15;7.63;;;;;;;9.16;100.00;99012.88;4962151;29;20051;-81
2022/09/28 07:43:29;;;;;;;13.88;8.32;;;;;;;9.44;100.00;99024.19;4962086;29;20123;-81
2022/09/28 07:45:55;;;;;;;12.50;8.35;;;;;;;9.60;100.00;99026.53;4962238;28;20082;-82
2022/09/28 07:48:22;;;;;;;11.60;8.25;;;;;;;9.56;100.00;99025.28;4961475;29;20059;-79
2022/09/28 07:50:50;;;;;;;11.63;8.38;;;;;;;9.83;100.00;99028.13;4961181;28;20143;-82
2022/09/28 07:53:18;;;;;;;11.65;7.47;;;;;;;10.07;100.00;99027.66;4961733;28;20075;-80
2022/09/28 07:55:49;;;;;;;11.30;8.40;;;;;;;10.09;98.53;99032.69;4962478;29;20059;-81
2022/09/28 07:58:16;;;;;;;8.53;7.20;;;;;;;9.97;98.02;99035.03;4963280;28;20051;-83
2022/09/28 08:00:46;;;;;;;12.18;7.00;;;;;;;9.89;98.30;99040.41;4965724;29;20044;-83
2022/09/28 08:03:13;;;;;;;9.15;6.30;;;;;;;9.93;98.06;99042.44;4966608;28;20115;-80
2022/09/28 08:05:41;;;;;;;8.88;5.90;;;;;;;10.00;98.46;99039.88;4966540;29;20528;-80
2022/09/28 08:08:08;;;;;;;7.40;5.90;;;;;;;10.45;97.64;99040.34;4966397;28;20488;-81
2022/09/28 08:10:36;;;;;;;9.00;5.45;;;;;;;10.36;95.60;99041.53;4967680;29;20345;-81
2022/09/28 08:13:06;;;;;;;6.93;5.25;;;;;;;10.39;94.42;99046.38;4967030;28;20118;-82
2022/09/28 08:15:35;;;;;;;8.10;4.75;;;;;;;10.37;94.89;99037.94;4966317;29;20408;-81
2022/09/28 08:18:04;;;;;;;8.75;4.65;;;;;;;10.29;94.63;99033.66;4967167;28;20568;-83
2022/09/28 08:23:15;;;;;;;5.90;4.30;;;;;;;10.72;93.14;99049.16;4949917;29;20288;-82
2022/09/28 08:25:47;;;;;;;8.80;4.75;;;;;;;10.96;92.46;99052.03;4963959;29;20078;-81
2022/09/28 08:28:16;;;;;;;7.93;3.80;;;;;;;10.95;92.13;99045.19;4972935;28;20062;-81
2022/09/28 08:30:43;;;;;;;12.00;4.97;;;;;;;11.03;92.13;99052.06;4975865;28;20043;-81
2022/09/28 08:33:11;;;;;;;6.15;3.90;;;;;;;11.37;90.92;99066.84;4978603;28;20042;-82
2022/09/28 08:35:37;;;;;;;8.40;4.18;;;;;;;11.40;90.35;99061.19;4978713;28;20039;-82
2022/09/28 08:38:04;;;;;;;6.88;4.07;;;;;;;11.50;90.39;99061.63;4978601;28;20103;-84
2022/09/28 08:40:37;;;;;;;8.82;6.00;;;;;;;11.52;89.88;99070.09;4978583;28;20043;-83
2022/09/28 08:43:14;;;;;;;9.80;4.20;;;;;;;11.33;89.75;99076.13;4977354;28;20054;-82
2022/09/28 08:45:43;;;;;;;6.53;3.88;;;;;;;11.11;90.11;99064.16;4976692;28;20036;-82
2022/09/28 08:51:07;;;;;;;12.95;4.07;;;;;;;11.06;91.55;99063.94;4965929;28;20169;-82
2022/09/28 08:53:41;;;;;;;6.25;4.10;;;;;;;11.10;91.00;99070.41;4966065;28;20083;-79
2022/09/28 08:56:16;;;;;;;8.75;4.10;;;;;;;10.97;89.94;99066.75;4968135;28;20059;-81
2022/09/28 08:58:47;;;;;;;4.70;3.17;;;;;;;11.16;90.92;99080.09;4967046;28;20047;-81
2022/09/28 09:01:17;;;;;;;8.55;3.70;;;;;;;11.36;89.35;99075.69;4963843;28;20079;-83
2022/09/28 09:03:57;;;;;;;4.28;2.95;;;;;;;11.43;88.21;99067.84;4962950;28;20086;-80
2022/09/28 09:06:34;;;;;;;3.90;3.00;;;;;;;11.57;88.23;99067.69;4958288;28;20074;-80
2022/09/28 09:09:08;;;;;;;5.53;3.25;;;;;;;11.50;87.85;99071.28;4951708;28;20086;-81
2022/09/28 09:11:56;;;;;;;4.75;3.22;;;;;;;11.68;87.60;99086.44;4959600;28;20085;-80
2022/09/28 09:14:55;;;;;;;4.63;3.08;;;;;;;11.84;86.52;99068.50;4965273;28;20051;-82
2022/09/28 09:17:35;;;;;;;6.18;3.00;;;;;;;11.72;86.29;99090.28;4960345;28;20065;-83
2022/09/28 09:20:35;;;;;;;6.65;3.30;;;;;;;11.53;86.55;99069.06;4963336;29;20058;-82
2022/09/28 09:23:23;;;;;;;7.93;3.25;;;;;;;11.81;86.25;99062.91;4988225;23;20047;-82
2022/09/28 09:26:03;;;;;;;5.47;2.78;;;;;;;11.95;86.25;99085.44;4963975;29;20047;-81
2022/09/28 09:28:52;;;;;;;3.47;2.88;;;;;;;11.64;85.61;99084.22;4961505;29;20062;-80
2022/09/28 09:31:35;;;;;;;5.68;3.15;;;;;;;11.80;85.17;99096.16;4959554;28;20078;-79
2022/09/28 09:34:21;;;;;;;6.03;3.00;;;;;;;11.85;85.33;99096.34;4977908;28;20495;-81
2022/09/28 09:37:05;;;;;;;5.22;3.30;;;;;;;12.09;85.26;99096.75;4976084;28;20051;-80
2022/09/28 09:39:46;;;;;;;6.93;3.15;;;;;;;12.32;86.13;99101.53;4975699;28;20058;-80
2022/09/28 09:42:28;;;;;;;9.38;3.30;;;;;;;11.98;85.35;99087.66;4961483;28;20492;-80
2022/09/28 09:45:09;;;;;;;5.75;2.60;;;;;;;12.08;84.54;99101.19;4977497;28;20134;-79
2022/09/28 09:47:41;;;;;;;6.35;3.13;;;;;;;11.83;85.28;99087.06;4977722;28;20061;-80
2022/09/28 09:50:15;;;;;;;8.20;2.92;;;;;;;12.11;85.31;99084.25;4977406;28;20547;-81
2022/09/28 09:52:48;;;;;;;6.97;2.97;;;;;;;12.05;83.71;99093.72;4976631;28;20138;-79
2022/09/28 09:55:25;;;;;;;7.40;2.92;;;;;;;11.95;83.78;99091.50;4976022;28;20058;-80
2022/09/28 09:57:55;;;;;;;4.53;2.70;;;;;;;11.93;82.95;99101.38;4976556;28;20055;-78
2022/09/28 10:00:22;;;;;;;4.97;2.67;;;;;;;11.51;82.21;99078.94;4977643;28;20142;-79
2022/09/28 10:02:50;;;;;;;4.78;2.65;;;;;;;11.57;82.50;99099.13;4977912;28;20129;-80
2022/09/28 10:05:22;;;;;;;11.55;2.55;;;;;;;11.47;83.80;99098.69;4977877;28;20134;-80
2022/09/28 10:07:54;;;;;;;4.88;2.35;;;;;;;11.41;84.79;99099.47;4978493;28;20090;-79
2022/09/28 10:10:26;;;;;;;8.02;3.00;;;;;;;11.46;85.00;99080.56;4977321;28;20078;-79
2022/09/28 10:12:54;;;;;;;7.50;2.92;;;;;;;11.59;85.31;99091.84;4977196;28;20115;-79
2022/09/28 10:15:32;;;;;;;3.53;2.63;;;;;;;11.66;84.87;99096.31;4978929;28;20499;-80
2022/09/28 10:18:05;;;;;;;3.15;2.40;;;;;;;11.76;83.48;99073.94;4977333;28;20066;-78
2022/09/28 10:20:39;;;;;;;6.70;2.83;;;;;;;12.13;82.60;99071.72;4977626;28;20050;-80
2022/09/28 10:23:18;;;;;;;5.53;2.17;;;;;;;12.33;81.56;99087.41;4975258;28;20137;-80
2022/09/28 10:25:53;;;;;;;3.88;2.47;;;;;;;12.36;81.11;99100.94;4974644;28;20047;-79
2022/09/28 10:28:30;;;;;;;4.38;2.17;;;;;;;12.34;80.62;99070.66;4959213;28;20039;-78
2022/09/28 10:31:40;;;;;;;4.05;2.35;;;;;;;12.51;79.52;99079.72;4976450;28;20456;-76
2022/09/28 10:34:12;;;;;;;3.50;2.08;;;;;;;12.35;79.59;99077.53;4976747;28;20066;-79
2022/09/28 10:36:59;;;;;;;4.23;2.67;;;;;;;12.45;78.59;99083.16;4976911;28;20047;-80
2022/09/28 10:39:35;;;;;;;2.53;1.75;;;;;;;12.54;79.26;99092.44;4975868;28;20055;-79
2022/09/28 10:42:05;;;;;;;5.53;2.45;;;;;;;12.40;79.40;99089.03;4994395;23;20051;-75
2022/09/28 10:44:34;;;;;;;5.72;2.53;;;;;;;12.56;80.07;99093.84;4956401;28;20160;-77
2022/09/28 10:47:02;;;;;;;8.50;2.95;;;;;;;12.52;80.71;99091.81;4959353;28;20084;-77
2022/09/28 10:49:38;;;;;;;3.40;2.40;;;;;;;12.50;80.87;99096.47;4956449;28;20456;-77
2022/09/28 10:52:07;;;;;;;5.10;3.15;;;;;;;12.49;81.28;99087.00;4959348;28;20051;-77
2022/09/28 10:54:35;;;;;;;5.95;2.95;;;;;;;12.45;80.91;99093.66;4973972;28;20065;-77
2022/09/28 10:57:02;;;;;;;4.53;2.97;;;;;;;12.37;80.46;99078.13;4975405;28;20129;-77
2022/09/28 10:59:40;;;;;;;3.08;2.65;;;;;;;12.42;81.39;99097.50;4974717;28;20062;-78
2022/09/28 11:02:20;;;;;;;4.93;2.90;;;;;;;12.45;81.18;99085.78;4976892;28;20134;-78
2022/09/28 11:04:51;;;;;;;3.20;2.42;;;;;;;12.48;82.05;99090.63;4987739;28;20125;-78
2022/09/28 11:07:19;;;;;;;4.82;2.50;;;;;;;12.57;81.30;99092.81;4978190;28;20054;-77
2022/09/28 11:09:49;;;;;;;4.97;2.45;;;;;;;12.52;81.70;99091.81;4976814;28;20137;-78
2022/09/28 11:12:19;;;;;;;3.38;2.42;;;;;;;12.82;81.18;99094.75;4975450;28;20133;-77
2022/09/28 11:14:51;;;;;;;6.07;2.90;;;;;;;12.89;80.30;99104.22;4975059;28;20081;-76
2022/09/28 11:17:25;;;;;;;7.68;2.65;;;;;;;12.81;78.97;99085.25;4974783;28;20430;-77
2022/09/28 11:19:52;;;;;;;4.05;2.50;;;;;;;13.02;79.55;99098.09;4975169;28;20051;-78
2022/09/28 11:22:27;;;;;;;4.28;2.20;;;;;;;13.15;78.19;99097.25;4974892;28;20043;-77
2022/09/28 11:25:14;;;;;;;5.47;2.80;;;;;;;13.31;78.26;99094.13;4976180;28;20050;-78
2022/09/28 11:27:41;;;;;;;4.38;2.22;;;;;;;13.24;78.30;99088.13;4975007;28;20064;-78
2022/09/28 11:30:22;;;;;;;4.88;2.67;;;;;;;13.44;77.96;99098.53;4974923;28;20042;-78
2022/09/28 11:32:50;;;;;;;6.63;2.72;;;;;;;13.25;77.19;99081.84;4975480;28;20121;-78
2022/09/28 11:35:20;;;;;;;4.88;2.35;;;;;;;13.28;77.63;99097.19;4973816;28;20463;-77
2022/09/28 11:37:59;;;;;;;6.25;2.45;;;;;;;13.46;78.71;99094.66;4973572;28;20054;-77
2022/09/28 11:40:41;;;;;;;7.07;3.10;;;;;;;13.07;79.42;99094.84;4974367;28;20050;-78
2022/09/28 11:43:16;;;;;;;5.70;2.67;;;;;;;13.00;80.07;99094.06;4972207;28;20059;-77
2022/09/28 11:45:52;;;;;;;6.90;2.53;;;;;;;13.12;78.35;99089.78;4973641;28;20153;-77
2022/09/28 11:48:24;;;;;;;7.82;2.20;;;;;;;13.33;77.43;99094.75;4957921;28;20062;-77
2022/09/28 11:50:54;;;;;;;6.32;2.10;;;;;;;13.25;77.12;99098.41;4974009;28;20459;-77
2022/09/28 11:53:27;;;;;;;5.43;2.15;;;;;;;13.31;76.99;99091.50;4973466;28;20134;-77
2022/09/28 11:55:58;;;;;;;;;;;;;;;13.35;76.29;99092.72;4974041;28;20051;-77
2022/09/28 11:58:30;;;;;;;3.25;1.83;;;;;;;13.11;76.93;99098.69;4973134;28;19934;-78
2022/09/28 12:01:02;;;;;;;3.05;2.20;;;;;;;13.12;76.77;99100.28;4974151;28;20537;-77
2022/09/28 12:03:35;;;;;;;3.92;2.33;;;;;;;12.82;77.32;99095.56;4986907;28;20082;-77
2022/09/28 12:06:04;;;;;;;;;;;;;;;13.01;77.78;99095.69;4976072;28;20126;-77
2022/09/28 12:08:35;;;;;;;3.20;2.13;;;;;;;13.20;77.93;99097.47;4959957;28;20021;-78
2022/09/28 12:11:09;;;;;;;4.67;2.77;;;;;;;13.15;78.16;99087.56;4974953;28;20055;-77
2022/09/28 12:13:44;;;;;;;3.28;2.83;;;;;;;13.19;78.41;99091.41;4973873;28;20051;-77